createdAt,value
2018-07-22T00:01:49.660Z,72.80
2018-07-22T00:04:18.885Z,73.20
2018-07-22T00:06:48.093Z,72.75
2018-07-22T00:09:17.216Z,72.51
2018-07-22T00:11:46.418Z,72.83
2018-07-22T00:14:15.584Z,73.13
2018-07-22T00:16:44.812Z,72.79
2018-07-22T00:19:13.974Z,73.61
2018-07-22T00:21:43.244Z,73.34
2018-07-22T00:24:12.721Z,73.14
2018-07-22T00:26:41.905Z,73.40
2018-07-22T00:29:11.093Z,73.23
2018-07-22T00:31:40.290Z,73.18
2018-07-22T00:34:09.458Z,72.72
2018-07-22T00:36:38.731Z,72.67
2018-07-22T00:39:10.064Z,72.63
2018-07-22T00:41:39.312Z,72.27
2018-07-22T00:44:08.463Z,72.64
2018-07-22T00:46:37.712Z,72.88
2018-07-22T00:49:06.949Z,72.85
2018-07-22T00:51:36.125Z,72.73
2018-07-22T00:54:05.561Z,72.73
2018-07-22T00:56:35.009Z,73.02
2018-07-22T00:59:04.223Z,72.44
2018-07-22T01:01:33.464Z,73.18
2018-07-22T01:04:02.605Z,72.52
2018-07-22T01:06:31.872Z,72.47
2018-07-22T01:09:01.020Z,72.86
2018-07-22T01:11:30.366Z,73.57
2018-07-22T01:13:59.521Z,72.92
2018-07-22T01:16:28.775Z,73.43
2018-07-22T01:18:58.008Z,74.84
2018-07-22T01:21:27.456Z,74.38
2018-07-22T01:23:56.585Z,74.75
2018-07-22T01:26:25.776Z,73.89
2018-07-22T01:28:55.004Z,74.14
2018-07-22T01:31:24.248Z,73.80
2018-07-22T01:33:54.324Z,72.94
2018-07-22T01:36:23.452Z,73.57
2018-07-22T01:38:52.840Z,73.58
2018-07-22T01:41:22.079Z,73.52
2018-07-22T01:43:51.238Z,73.52
2018-07-22T01:46:20.377Z,73.53
2018-07-22T01:48:49.644Z,73.31
2018-07-22T01:51:18.932Z,72.74
2018-07-22T01:53:48.089Z,72.87
2018-07-22T01:56:17.245Z,72.60
2018-07-22T01:58:46.666Z,73.24
2018-07-22T02:01:15.807Z,73.46
2018-07-22T02:03:44.972Z,73.81
2018-07-22T02:06:14.102Z,73.81
2018-07-22T02:08:43.254Z,73.54
2018-07-22T02:11:12.400Z,73.51
2018-07-22T02:13:42.537Z,73.74
2018-07-22T02:16:11.655Z,73.42
2018-07-22T02:18:40.860Z,73.45
2018-07-22T02:21:09.992Z,73.70
2018-07-22T02:23:39.180Z,74.35
2018-07-22T02:26:08.370Z,74.32
2018-07-22T02:28:37.550Z,73.91
2018-07-22T02:31:06.981Z,73.49
2018-07-22T02:33:37.242Z,73.60
2018-07-22T02:36:06.845Z,73.81
2018-07-22T02:38:36.160Z,73.69
2018-07-22T02:41:05.371Z,74.30
2018-07-22T02:43:34.527Z,73.90
2018-07-22T02:46:03.696Z,74.04
2018-07-22T02:48:32.957Z,73.86
2018-07-22T02:51:02.206Z,73.95
2018-07-22T02:53:31.337Z,73.30
2018-07-22T02:56:00.638Z,72.56
2018-07-22T02:58:29.835Z,73.36
2018-07-22T03:00:58.981Z,72.91
2018-07-22T03:03:28.176Z,73.31
2018-07-22T03:05:57.446Z,72.75
2018-07-22T03:08:26.718Z,73.15
2018-07-22T03:10:55.902Z,72.78
2018-07-22T03:13:25.109Z,73.07
2018-07-22T03:15:54.249Z,72.78
2018-07-22T03:18:23.577Z,73.16
2018-07-22T03:20:52.773Z,73.42
2018-07-22T03:23:21.976Z,73.09
2018-07-22T03:25:51.170Z,73.37
2018-07-22T03:28:20.426Z,72.74
2018-07-22T03:30:49.565Z,73.65
2018-07-22T03:33:18.796Z,74.23
2018-07-22T03:35:47.954Z,74.10
2018-07-22T03:38:17.085Z,74.17
2018-07-22T03:40:46.277Z,73.32
2018-07-22T03:43:15.447Z,73.49
2018-07-22T03:45:50.226Z,73.65
2018-07-22T03:48:19.361Z,73.70
2018-07-22T03:50:48.626Z,73.32
2018-07-22T03:53:17.813Z,73.20
2018-07-22T03:55:47.028Z,73.45
2018-07-22T03:58:16.149Z,74.06
2018-07-22T04:00:45.316Z,73.95
2018-07-22T04:03:14.652Z,74.04
2018-07-22T04:05:44.118Z,74.13
2018-07-22T04:08:13.253Z,73.64
2018-07-22T04:10:42.429Z,74.48
2018-07-22T04:13:11.698Z,74.71
2018-07-22T04:15:40.861Z,74.98
2018-07-22T04:18:10.072Z,75.22
2018-07-22T04:20:39.212Z,74.89
2018-07-22T04:23:08.520Z,74.69
2018-07-22T04:25:37.656Z,74.53
2018-07-22T04:28:06.813Z,74.45
2018-07-22T04:30:35.953Z,74.57
2018-07-22T04:33:05.188Z,74.54
2018-07-22T04:35:34.412Z,74.68
2018-07-22T04:38:03.665Z,74.87
2018-07-22T04:40:32.798Z,74.40
2018-07-22T04:43:02.016Z,74.68
2018-07-22T04:45:31.217Z,74.97
2018-07-22T04:48:00.454Z,75.03
2018-07-22T04:50:29.600Z,75.20
2018-07-22T04:52:58.750Z,74.97
2018-07-22T04:55:27.940Z,74.96
2018-07-22T04:57:57.143Z,74.70
2018-07-22T05:00:26.320Z,74.87
2018-07-22T05:02:55.450Z,75.52
2018-07-22T05:05:24.721Z,75.92
2018-07-22T05:07:53.861Z,75.89
2018-07-22T05:10:23.120Z,76.07
2018-07-22T05:12:52.246Z,75.58
2018-07-22T05:15:21.419Z,75.61
2018-07-22T05:17:50.577Z,75.33
2018-07-22T05:20:19.776Z,75.27
2018-07-22T05:22:48.919Z,75.62
2018-07-22T05:25:18.089Z,75.81
2018-07-22T05:27:47.256Z,75.37
2018-07-22T05:30:16.501Z,75.85
2018-07-22T05:32:45.682Z,75.77
2018-07-22T05:35:14.885Z,76.57
2018-07-22T05:37:44.174Z,76.81
2018-07-22T05:40:13.390Z,77.08
2018-07-22T05:42:42.513Z,77.19
2018-07-22T05:45:11.809Z,77.04
2018-07-22T05:47:41.153Z,76.23
2018-07-22T05:50:10.385Z,75.80
2018-07-22T05:52:39.638Z,75.89
2018-07-22T05:55:08.884Z,75.57
2018-07-22T05:57:38.029Z,76.10
2018-07-22T06:00:08.017Z,75.55
2018-07-22T06:02:37.409Z,76.27
2018-07-22T06:05:06.882Z,76.98
2018-07-22T06:07:36.093Z,76.58
2018-07-22T06:10:06.181Z,77.04
2018-07-22T06:12:35.356Z,77.13
2018-07-22T06:15:05.213Z,77.02
2018-07-22T06:17:34.369Z,77.24
2018-07-22T06:20:03.601Z,77.55
2018-07-22T06:22:32.802Z,76.98
2018-07-22T06:25:02.126Z,76.53
2018-07-22T06:27:31.448Z,75.86
2018-07-22T06:30:00.589Z,76.03
2018-07-22T06:32:29.780Z,76.95
2018-07-22T06:34:59.090Z,77.04
2018-07-22T06:37:28.302Z,76.47
2018-07-22T06:39:57.425Z,76.25
2018-07-22T06:42:26.598Z,76.13
2018-07-22T06:44:56.016Z,75.79
2018-07-22T06:47:25.205Z,75.51
2018-07-22T06:49:54.383Z,75.39
2018-07-22T06:52:23.692Z,74.86
2018-07-22T06:54:53.002Z,75.01
2018-07-22T06:57:22.331Z,74.63
2018-07-22T06:59:51.820Z,73.98
2018-07-22T07:02:21.389Z,74.11
2018-07-22T07:04:50.558Z,73.52
2018-07-22T07:07:19.710Z,73.14
2018-07-22T07:09:48.984Z,73.53
2018-07-22T07:12:18.152Z,73.29
2018-07-22T07:14:47.436Z,73.37
2018-07-22T07:17:16.573Z,72.33
2018-07-22T07:19:45.884Z,71.87
2018-07-22T07:22:15.094Z,71.35
2018-07-22T07:24:44.377Z,72.39
2018-07-22T07:27:13.529Z,70.98
2018-07-22T07:29:42.773Z,71.58
2018-07-22T07:32:12.132Z,71.69
2018-07-22T07:34:41.376Z,71.29
2018-07-22T07:37:10.638Z,71.39
2018-07-22T07:39:39.865Z,70.89
2018-07-22T07:42:10.329Z,71.29
2018-07-22T07:44:39.842Z,71.45
2018-07-22T07:47:09.058Z,71.57
2018-07-22T07:49:38.418Z,71.69
2018-07-22T07:52:07.653Z,71.08
2018-07-22T07:54:37.805Z,70.68
2018-07-22T07:57:06.953Z,71.05
2018-07-22T07:59:36.180Z,70.80
2018-07-22T08:02:05.329Z,71.04
2018-07-22T08:04:34.535Z,71.16
2018-07-22T08:07:03.758Z,71.47
2018-07-22T08:09:33.027Z,71.25
2018-07-22T08:12:02.154Z,70.92
2018-07-22T08:14:31.659Z,71.05
2018-07-22T08:17:01.314Z,72.19
2018-07-22T08:19:30.577Z,71.30
2018-07-22T08:22:00.288Z,73.11
2018-07-22T08:24:29.473Z,72.35
2018-07-22T08:26:58.686Z,73.17
2018-07-22T08:29:30.931Z,72.87
2018-07-22T08:32:00.756Z,72.86
2018-07-22T08:34:30.265Z,72.23
2018-07-22T08:36:59.889Z,72.11
2018-07-22T08:39:30.181Z,73.12
2018-07-22T08:41:59.925Z,72.92
2018-07-22T08:44:29.110Z,71.71
2018-07-22T08:46:58.358Z,72.23
2018-07-22T08:49:27.657Z,71.79
2018-07-22T08:51:56.996Z,72.79
2018-07-22T08:54:26.236Z,72.78
2018-07-22T08:56:55.542Z,72.74
2018-07-22T08:59:24.749Z,72.79
2018-07-22T09:01:54.029Z,70.69
2018-07-22T09:04:23.153Z,71.76
2018-07-22T09:06:52.850Z,71.76
2018-07-22T09:09:22.132Z,72.45
2018-07-22T09:11:51.369Z,73.00
2018-07-22T09:14:20.536Z,72.17
2018-07-22T09:16:49.705Z,71.74
2018-07-22T09:19:18.934Z,71.73
2018-07-22T09:21:48.256Z,72.36
2018-07-22T09:24:18.629Z,72.69
2018-07-22T09:26:47.751Z,72.78
2018-07-22T09:29:17.948Z,73.47
2018-07-22T09:31:47.212Z,73.86
2018-07-22T09:34:16.449Z,71.85
2018-07-22T09:36:45.774Z,70.44
2018-07-22T09:39:15.161Z,69.68
2018-07-22T09:41:44.495Z,69.95
2018-07-22T09:44:14.078Z,69.65
2018-07-22T09:46:43.488Z,69.80
2018-07-22T09:49:12.892Z,69.89
2018-07-22T09:51:42.228Z,70.19
2018-07-22T09:54:11.555Z,69.85
2018-07-22T09:56:41.107Z,69.63
2018-07-22T09:59:10.506Z,69.28
2018-07-22T10:01:39.851Z,69.67
2018-07-22T10:04:09.406Z,68.20
2018-07-22T10:06:38.889Z,69.04
2018-07-22T10:09:10.062Z,67.51
2018-07-22T10:11:39.711Z,68.38
2018-07-22T10:14:10.981Z,68.53
2018-07-22T10:16:40.273Z,69.52
2018-07-22T10:19:09.743Z,69.12
2018-07-22T10:21:39.358Z,68.87
2018-07-22T10:24:08.667Z,68.59
2018-07-22T10:26:38.105Z,69.15
2018-07-22T10:29:08.250Z,67.61
2018-07-22T10:31:37.673Z,68.38
2018-07-22T10:34:07.054Z,68.98
2018-07-22T10:36:36.640Z,68.74
2018-07-22T10:39:08.696Z,68.57
2018-07-22T10:41:38.063Z,66.68
2018-07-22T10:44:07.337Z,66.59
2018-07-22T10:46:37.121Z,68.07
2018-07-22T10:49:06.667Z,66.37
2018-07-22T10:51:37.095Z,65.62
2018-07-22T10:54:09.530Z,65.40
2018-07-22T10:56:40.005Z,66.24
2018-07-22T10:59:09.504Z,65.79
2018-07-22T11:01:40.012Z,65.59
2018-07-22T11:04:09.266Z,64.64
2018-07-22T11:06:38.584Z,64.28
2018-07-22T11:09:09.081Z,64.27
2018-07-22T11:11:38.806Z,64.75
2018-07-22T11:14:08.366Z,64.18
2018-07-22T11:16:40.570Z,62.24
2018-07-22T11:19:10.709Z,63.68
2018-07-22T11:21:40.217Z,62.18
2018-07-22T11:24:09.495Z,61.98
2018-07-22T11:26:38.769Z,63.25
2018-07-22T11:29:08.122Z,62.25
2018-07-22T11:31:37.358Z,61.91
2018-07-22T11:34:06.796Z,60.22
2018-07-22T11:36:35.953Z,59.70
2018-07-22T11:39:07.909Z,61.15
2018-07-22T11:41:37.897Z,62.26
2018-07-22T11:44:07.792Z,60.81
2018-07-22T11:46:38.094Z,57.31
2018-07-22T11:49:07.609Z,59.60
2018-07-22T11:51:37.713Z,59.60
2018-07-22T11:54:07.224Z,57.35
2018-07-22T11:56:36.388Z,57.68
2018-07-22T11:59:06.783Z,58.06
2018-07-22T12:01:36.029Z,57.68
2018-07-22T12:04:05.312Z,57.50
2018-07-22T12:06:34.780Z,56.79
2018-07-22T12:09:05.177Z,57.28
2018-07-22T12:11:34.342Z,55.33
2018-07-22T12:14:03.618Z,55.11
2018-07-22T12:16:33.090Z,55.73
2018-07-22T12:19:02.510Z,55.29
2018-07-22T12:21:31.859Z,56.89
2018-07-22T12:24:01.105Z,55.81
2018-07-22T12:26:30.261Z,55.96
2018-07-22T12:28:59.496Z,55.15
2018-07-22T12:31:28.726Z,56.50
2018-07-22T12:33:58.210Z,57.70
2018-07-22T12:36:27.502Z,57.24
2018-07-22T12:38:56.880Z,56.36
2018-07-22T12:41:26.213Z,56.27
2018-07-22T12:43:56.262Z,55.50
2018-07-22T12:46:25.559Z,55.64
2018-07-22T12:48:54.785Z,57.12
2018-07-22T12:51:24.230Z,56.25
2018-07-22T12:53:53.681Z,53.26
2018-07-22T12:56:23.433Z,54.58
2018-07-22T12:58:52.917Z,53.81
2018-07-22T13:01:22.276Z,53.92
2018-07-22T13:03:51.631Z,53.50
2018-07-22T13:06:20.889Z,53.47
2018-07-22T13:08:50.120Z,53.76
2018-07-22T13:11:19.408Z,52.65
2018-07-22T13:13:48.513Z,54.33
2018-07-22T13:16:18.070Z,52.35
2018-07-22T13:18:47.231Z,49.75
2018-07-22T13:21:17.263Z,51.54
2018-07-22T13:23:46.846Z,49.99
2018-07-22T13:26:16.158Z,49.49
2018-07-22T13:28:45.423Z,51.87
2018-07-22T13:31:14.624Z,52.34
2018-07-22T13:33:43.750Z,52.05
2018-07-22T13:36:13.025Z,51.07
2018-07-22T13:38:42.220Z,50.45
2018-07-22T13:41:11.418Z,53.71
2018-07-22T13:43:40.708Z,53.26
2018-07-22T13:46:10.032Z,52.76
2018-07-22T13:48:39.260Z,50.47
2018-07-22T13:51:08.549Z,51.62
2018-07-22T13:53:37.714Z,49.26
2018-07-22T13:56:06.946Z,51.49
2018-07-22T13:58:36.172Z,50.04
2018-07-22T14:01:05.497Z,45.12
2018-07-22T14:03:34.706Z,47.38
2018-07-22T14:06:04.034Z,46.95
2018-07-22T14:08:33.261Z,46.06
2018-07-22T14:11:02.503Z,50.44
2018-07-22T14:13:31.725Z,49.96
2018-07-22T14:16:01.003Z,48.62
2018-07-22T14:18:30.170Z,49.19
2018-07-22T14:21:00.458Z,51.11
2018-07-22T14:23:29.737Z,50.74
2018-07-22T14:25:58.982Z,52.00
2018-07-22T14:28:28.219Z,54.27
2018-07-22T14:30:57.417Z,51.19
2018-07-22T14:33:26.732Z,49.27
2018-07-22T14:35:56.573Z,48.81
2018-07-22T14:38:27.565Z,48.27
2018-07-22T14:40:57.429Z,41.38
2018-07-22T14:43:26.910Z,39.73
2018-07-22T14:45:56.078Z,41.62
2018-07-22T14:48:26.316Z,40.94
2018-07-22T14:50:55.670Z,39.74
2018-07-22T14:53:24.844Z,39.23
2018-07-22T14:55:54.225Z,39.35
2018-07-22T14:58:23.462Z,39.78
2018-07-22T15:00:52.764Z,39.27
2018-07-22T15:03:21.956Z,38.53
2018-07-22T15:05:51.193Z,39.99
2018-07-22T15:08:20.509Z,39.58
2018-07-22T15:10:49.815Z,40.03
2018-07-22T15:13:18.948Z,40.09
2018-07-22T15:15:48.135Z,38.90
2018-07-22T15:18:17.501Z,39.58
2018-07-22T15:20:46.745Z,39.98
2018-07-22T15:23:16.001Z,40.01
2018-07-22T15:25:45.300Z,37.85
2018-07-22T15:28:15.151Z,39.02
2018-07-22T15:30:44.851Z,38.00
2018-07-22T15:33:14.055Z,37.20
2018-07-22T15:35:43.401Z,36.46
2018-07-22T15:38:12.816Z,38.23
2018-07-22T15:40:42.068Z,36.98
2018-07-22T15:43:11.361Z,35.82
2018-07-22T15:45:40.702Z,37.40
2018-07-22T15:48:10.034Z,37.58
2018-07-22T15:50:39.280Z,36.59
2018-07-22T15:53:08.596Z,36.65
2018-07-22T15:55:38.036Z,35.99
2018-07-22T15:58:07.205Z,37.51
2018-07-22T16:00:36.560Z,35.92
2018-07-22T16:03:05.883Z,36.69
2018-07-22T16:05:35.164Z,35.54
2018-07-22T16:08:04.513Z,37.02
2018-07-22T16:10:33.820Z,36.02
2018-07-22T16:13:03.201Z,36.87
2018-07-22T16:15:32.484Z,38.39
2018-07-22T16:18:01.821Z,37.68
2018-07-22T16:20:31.056Z,37.90
2018-07-22T16:23:00.611Z,37.81
2018-07-22T16:25:30.053Z,37.56
2018-07-22T16:27:59.364Z,37.32
2018-07-22T16:30:28.706Z,38.01
2018-07-22T16:32:58.032Z,38.31
2018-07-22T16:35:27.529Z,38.10
2018-07-22T16:37:56.927Z,37.98
2018-07-22T16:40:26.436Z,37.77
2018-07-22T16:42:55.642Z,38.93
2018-07-22T16:45:25.005Z,38.13
2018-07-22T16:47:54.252Z,37.65
2018-07-22T16:50:24.444Z,39.41
2018-07-22T16:52:53.653Z,38.83
2018-07-22T16:55:22.910Z,37.76
2018-07-22T16:57:52.225Z,38.46
2018-07-22T17:00:21.653Z,38.26
2018-07-22T17:02:50.906Z,40.53
2018-07-22T17:05:20.156Z,39.29
2018-07-22T17:07:49.761Z,38.99
2018-07-22T17:10:19.172Z,38.82
2018-07-22T17:12:48.689Z,43.04
2018-07-22T17:15:18.385Z,43.96
2018-07-22T17:17:47.678Z,43.63
2018-07-22T17:20:16.856Z,43.67
2018-07-22T17:22:46.108Z,44.64
2018-07-22T17:25:15.319Z,44.23
2018-07-22T17:27:44.652Z,45.57
2018-07-22T17:30:13.914Z,46.85
2018-07-22T17:32:43.239Z,46.03
2018-07-22T17:35:12.576Z,46.99
2018-07-22T17:37:41.980Z,47.25
2018-07-22T17:40:11.177Z,48.22
2018-07-22T17:42:40.507Z,47.78
2018-07-22T17:45:09.754Z,47.02
2018-07-22T17:47:39.081Z,47.39
2018-07-22T17:50:08.456Z,47.15
2018-07-22T17:52:37.751Z,47.16
2018-07-22T17:55:07.194Z,47.89
2018-07-22T17:57:36.552Z,47.86
2018-07-22T18:00:06.070Z,47.37
2018-07-22T18:02:35.335Z,47.35
2018-07-22T18:07:54.634Z,48.05
2018-07-22T18:10:24.002Z,47.20
2018-07-22T18:12:54.339Z,48.24
2018-07-22T18:15:23.508Z,48.37
2018-07-22T18:17:52.857Z,47.80
2018-07-22T18:20:22.048Z,48.43
2018-07-22T18:22:51.382Z,48.56
2018-07-22T18:25:20.695Z,49.16
2018-07-22T18:27:50.065Z,48.89
2018-07-22T18:30:19.312Z,49.53
2018-07-22T18:32:48.668Z,49.52
2018-07-22T18:35:17.841Z,49.66
2018-07-22T18:37:47.412Z,50.07
2018-07-22T18:40:16.733Z,50.29
2018-07-22T18:42:46.000Z,51.26
2018-07-22T18:45:15.364Z,52.72
2018-07-22T18:47:44.770Z,52.49
2018-07-22T18:50:14.065Z,53.84
2018-07-22T18:52:43.476Z,54.09
2018-07-22T18:55:12.669Z,54.72
2018-07-22T18:57:41.912Z,54.28
2018-07-22T19:00:11.180Z,55.21
2018-07-22T19:02:40.424Z,55.80
2018-07-22T19:05:09.734Z,57.24
2018-07-22T19:07:39.018Z,57.59
2018-07-22T19:10:08.702Z,57.10
2018-07-22T19:12:37.893Z,55.98
2018-07-22T19:15:07.161Z,55.83
2018-07-22T19:17:36.482Z,56.01
2018-07-22T19:20:06.120Z,57.19
2018-07-22T19:22:35.372Z,58.10
2018-07-22T19:25:04.702Z,57.57
2018-07-22T19:27:33.892Z,57.64
2018-07-22T19:30:03.229Z,57.75
2018-07-22T19:32:32.568Z,57.62
2018-07-22T19:35:02.044Z,57.11
2018-07-22T19:37:31.338Z,57.29
2018-07-22T19:40:00.698Z,58.28
2018-07-22T19:42:29.884Z,58.59
2018-07-22T19:44:59.125Z,58.34
2018-07-22T19:47:28.525Z,57.72
2018-07-22T19:49:57.808Z,57.82
2018-07-22T19:52:27.152Z,58.74
2018-07-22T19:54:56.468Z,59.16
2018-07-22T19:57:25.762Z,58.42
2018-07-22T19:59:55.090Z,59.28
2018-07-22T20:02:24.341Z,59.21
2018-07-22T20:04:53.689Z,58.71
2018-07-22T20:07:22.870Z,58.71
2018-07-22T20:09:52.169Z,60.16
2018-07-22T20:12:21.399Z,60.52
2018-07-22T20:14:50.666Z,60.16
2018-07-22T20:17:19.800Z,59.87
2018-07-22T20:19:49.056Z,60.30
2018-07-22T20:22:18.356Z,60.04
2018-07-22T20:24:47.600Z,60.92
2018-07-22T20:27:16.825Z,61.77
2018-07-22T20:29:46.063Z,62.44
2018-07-22T20:32:15.333Z,62.11
2018-07-22T20:34:44.823Z,62.00
2018-07-22T20:37:14.868Z,61.46
2018-07-22T20:39:44.361Z,61.16
2018-07-22T20:42:13.554Z,61.06
2018-07-22T20:44:42.878Z,61.57
2018-07-22T20:47:12.183Z,60.61
2018-07-22T20:49:41.365Z,60.21
2018-07-22T20:52:10.737Z,60.29
2018-07-22T20:54:40.037Z,61.26
2018-07-22T20:57:09.583Z,61.45
2018-07-22T20:59:38.986Z,60.93
2018-07-22T21:02:08.444Z,60.55
2018-07-22T21:04:38.115Z,61.26
2018-07-22T21:07:07.385Z,61.18
2018-07-22T21:09:37.016Z,61.20
2018-07-22T21:12:44.818Z,60.92
2018-07-22T21:15:15.033Z,61.33
2018-07-22T21:17:46.107Z,61.39
2018-07-22T21:20:16.263Z,61.17
2018-07-22T21:22:45.774Z,61.67
2018-07-22T21:25:15.662Z,62.02
2018-07-22T21:27:45.504Z,62.20
2018-07-22T21:30:15.286Z,62.39
2018-07-22T21:32:44.792Z,61.77
2018-07-22T21:35:14.151Z,62.24
2018-07-22T21:37:43.740Z,61.68
2018-07-22T21:40:13.260Z,62.17
2018-07-22T21:42:42.568Z,62.16
2018-07-22T21:45:11.866Z,62.53
2018-07-22T21:47:42.224Z,62.66
2018-07-22T21:50:11.590Z,62.38
2018-07-22T21:52:40.895Z,63.44
2018-07-22T21:55:10.405Z,63.35
2018-07-22T21:57:39.698Z,63.73
2018-07-22T22:00:19.814Z,64.06
2018-07-22T22:02:49.254Z,64.05
2018-07-22T22:05:18.573Z,64.17
2018-07-22T22:07:47.997Z,63.65
2018-07-22T22:10:17.328Z,64.29
2018-07-22T22:12:46.676Z,64.12
2018-07-22T22:15:21.233Z,64.04
2018-07-22T22:17:50.540Z,64.15
2018-07-22T22:20:20.980Z,64.26
2018-07-22T22:22:50.501Z,63.76
2018-07-22T22:25:20.006Z,64.51
2018-07-22T22:27:49.401Z,63.81
2018-07-22T22:30:19.215Z,64.36
2018-07-22T22:32:48.932Z,64.88
2018-07-22T22:35:18.204Z,64.98
2018-07-22T22:37:47.727Z,64.66
2018-07-22T22:40:17.244Z,65.25
2018-07-22T22:42:47.460Z,65.25
2018-07-22T22:45:16.870Z,65.32
2018-07-22T22:47:46.137Z,64.50
2018-07-22T22:50:15.529Z,65.08
2018-07-22T22:52:44.798Z,64.87
2018-07-22T22:55:14.088Z,65.00
2018-07-22T22:58:52.376Z,65.50
2018-07-22T23:01:21.761Z,65.33
2018-07-22T23:03:50.989Z,66.13
2018-07-22T23:06:20.154Z,66.42
2018-07-22T23:08:49.492Z,66.31
2018-07-22T23:11:18.631Z,65.69
2018-07-22T23:13:47.951Z,66.38
2018-07-22T23:16:17.262Z,65.65
2018-07-22T23:18:46.645Z,65.71
2018-07-22T23:21:15.805Z,66.94
2018-07-22T23:23:45.046Z,66.21
2018-07-22T23:26:14.216Z,66.37
2018-07-22T23:28:43.377Z,66.98
2018-07-22T23:31:12.518Z,66.41
2018-07-22T23:33:41.737Z,66.96
2018-07-22T23:36:11.136Z,67.24
2018-07-22T23:38:40.322Z,67.16
2018-07-22T23:41:09.481Z,66.73
2018-07-22T23:43:38.685Z,67.00
2018-07-22T23:46:07.916Z,67.23
2018-07-22T23:48:37.346Z,67.29
2018-07-22T23:51:06.863Z,66.81
2018-07-22T23:53:36.084Z,66.80
2018-07-22T23:56:05.352Z,67.13
2018-07-22T23:58:34.576Z,67.12
